createdAt,value
2018-02-15T04:00:42.373Z,71.69
2018-02-15T04:01:41.890Z,73.11
2018-02-15T04:04:25.792Z,75.57
2018-02-15T04:05:24.797Z,76.51
2018-02-15T04:06:24.784Z,76.89
2018-02-15T04:07:24.777Z,77.08
2018-02-15T04:08:27.033Z,77.84
2018-02-15T04:09:25.686Z,78.13
2018-02-15T04:10:25.695Z,78.50
2018-02-15T04:11:26.245Z,78.59
2018-02-15T04:12:25.182Z,79.45
2018-02-15T04:13:27.157Z,79.83
2018-02-15T04:14:28.256Z,79.74
2018-02-15T04:15:25.681Z,80.49
2018-02-15T04:16:25.080Z,81.25
2018-02-15T04:17:25.071Z,81.72
2018-02-15T04:18:25.307Z,82.48
2018-02-15T04:19:25.084Z,82.86
2018-02-15T04:20:25.112Z,83.62
2018-02-15T04:21:25.543Z,83.43
2018-02-15T04:22:24.611Z,83.81
2018-02-15T04:23:24.629Z,84.56
2018-02-15T04:24:24.572Z,85.42
2018-02-15T04:25:24.568Z,84.94
2018-02-15T04:26:24.559Z,86.08
2018-02-15T04:27:24.558Z,86.60
2018-02-15T04:28:24.567Z,86.79
2018-02-15T04:29:24.543Z,87.74
2018-02-15T04:30:24.513Z,88.40
2018-02-15T04:31:24.504Z,88.78
2018-02-15T04:32:24.509Z,89.16
2018-02-15T04:33:24.487Z,89.16
2018-02-15T04:34:24.473Z,89.16
2018-02-15T04:35:24.457Z,89.54
2018-02-15T04:36:24.461Z,89.73
2018-02-15T04:37:24.444Z,89.73
2018-02-15T04:38:24.427Z,89.63
2018-02-15T04:39:24.420Z,90.01
2018-02-15T04:40:24.406Z,90.20
2018-02-15T04:41:24.392Z,89.92
2018-02-15T04:42:24.376Z,90.96
2018-02-15T04:43:24.391Z,90.96
2018-02-15T04:44:24.376Z,90.86
2018-02-15T04:45:24.377Z,90.77
2018-02-15T04:46:24.350Z,90.86
2018-02-15T04:47:24.330Z,91.72
2018-02-15T04:48:24.323Z,92.00
2018-02-15T04:49:24.307Z,92.38
2018-02-15T04:50:24.312Z,92.76
2018-02-15T04:51:24.286Z,93.32
2018-02-15T04:52:24.272Z,93.13
2018-02-15T04:53:24.286Z,93.61
2018-02-15T04:54:24.252Z,94.18
2018-02-15T04:55:24.262Z,93.89
2018-02-15T04:56:24.232Z,94.37
2018-02-15T04:57:24.303Z,94.56
2018-02-15T04:58:24.235Z,94.37
2018-02-15T04:59:24.222Z,94.74
2018-02-15T05:00:24.190Z,95.21
2018-02-15T05:01:24.176Z,95.78
2018-02-15T05:02:24.192Z,95.69
2018-02-15T05:03:24.169Z,95.78
2018-02-15T05:04:24.185Z,96.26
2018-02-15T05:05:24.137Z,96.16
2018-02-15T05:06:24.146Z,95.50
2018-02-15T05:07:25.304Z,95.97
2018-02-15T05:08:24.093Z,96.16
2018-02-15T05:09:24.089Z,96.16
2018-02-15T05:10:24.106Z,96.73
2018-02-15T05:11:24.166Z,96.83
2018-02-15T05:12:24.104Z,97.39
2018-02-15T05:13:24.069Z,97.49
2018-02-15T05:14:24.037Z,97.11
2018-02-15T05:15:24.038Z,97.11
2018-02-15T05:16:24.023Z,97.49
2018-02-15T05:17:24.019Z,98.15
2018-02-15T05:18:23.993Z,98.44
2018-02-15T05:19:23.981Z,98.53
2018-02-15T05:20:23.975Z,98.34
2018-02-15T05:21:23.961Z,98.44
2018-02-15T05:22:23.949Z,98.44
2018-02-15T05:23:23.946Z,99.01
2018-02-15T05:24:23.926Z,98.72
2018-02-15T05:25:23.918Z,98.63
2018-02-15T05:26:23.910Z,99.19
2018-02-15T05:27:23.881Z,99.10
2018-02-15T05:28:23.883Z,99.10
2018-02-15T05:29:23.866Z,98.91
2018-02-15T05:30:23.884Z,99.01
2018-02-15T05:31:23.847Z,99.38
2018-02-15T05:32:23.835Z,99.10
2018-02-15T05:33:23.822Z,98.91
2018-02-15T05:34:23.813Z,99.29
2018-02-15T05:35:23.800Z,99.48
2018-02-15T05:36:23.804Z,99.15
2018-02-15T05:37:23.772Z,99.01
2018-02-15T05:38:23.776Z,99.85
2018-02-15T05:39:23.747Z,99.99
2018-02-15T05:40:23.744Z,99.71
2018-02-15T05:41:23.734Z,98.72
2018-02-15T05:42:23.712Z,99.62
2018-02-15T05:43:23.709Z,99.15
2018-02-15T05:44:23.698Z,99.76
2018-02-15T05:45:23.684Z,99.52
2018-02-15T05:46:23.666Z,99.90
2018-02-15T05:47:23.678Z,99.85
2018-02-15T05:48:23.658Z,99.80
2018-02-15T05:49:23.641Z,99.85
2018-02-15T05:50:23.638Z,99.66
2018-02-15T05:51:23.617Z,99.80
2018-02-15T05:52:23.631Z,99.85
2018-02-15T05:53:23.589Z,99.57
2018-02-15T05:54:23.596Z,99.99
2018-02-15T05:55:23.610Z,99.38
2018-02-15T05:56:23.568Z,99.19
2018-02-15T05:57:23.562Z,99.76
2018-02-15T05:58:23.536Z,99.99
2018-02-15T05:59:23.538Z,99.62
2018-02-15T06:00:23.515Z,99.95
2018-02-15T06:01:23.513Z,99.99
2018-02-15T06:02:23.496Z,99.99
2018-02-15T06:03:23.480Z,99.99
2018-02-15T06:04:23.473Z,99.99
2018-02-15T06:05:23.454Z,99.99
2018-02-15T06:06:23.483Z,99.76
2018-02-15T06:07:23.450Z,99.99
2018-02-15T06:08:23.438Z,99.57
2018-02-15T06:09:23.424Z,99.99
2018-02-15T06:10:23.417Z,99.99
2018-02-15T06:11:23.407Z,99.99
2018-02-15T06:12:23.391Z,99.99
2018-02-15T06:13:23.379Z,99.95
2018-02-15T06:14:23.374Z,99.95
2018-02-15T06:15:23.358Z,99.99
2018-02-15T06:16:23.365Z,99.95
2018-02-15T06:17:23.341Z,99.38
2018-02-15T06:18:23.340Z,99.57
2018-02-15T06:19:23.314Z,99.48
2018-02-15T06:20:23.313Z,99.38
2018-02-15T06:21:23.286Z,99.66
2018-02-15T06:22:23.285Z,99.48
2018-02-15T06:23:23.262Z,99.99
2018-02-15T06:24:23.262Z,99.76
2018-02-15T06:25:23.247Z,99.29
2018-02-15T06:26:23.231Z,98.72
2018-02-15T06:27:23.219Z,99.29
2018-02-15T06:28:23.209Z,99.01
2018-02-15T06:29:23.204Z,99.29
2018-02-15T06:30:23.190Z,99.19
2018-02-15T06:31:23.177Z,99.29
2018-02-15T06:32:23.167Z,99.38
2018-02-15T06:33:23.153Z,99.19
2018-02-15T06:34:23.144Z,99.38
2018-02-15T06:35:23.148Z,99.38
2018-02-15T06:36:23.121Z,99.01
2018-02-15T06:37:23.110Z,98.91
2018-02-15T06:38:23.099Z,98.53
2018-02-15T06:39:23.088Z,99.48
2018-02-15T06:40:23.068Z,99.10
2018-02-15T06:41:23.072Z,98.63
2018-02-15T06:42:23.049Z,98.72
2018-02-15T06:43:23.049Z,99.10
2018-02-15T06:44:23.036Z,98.72
2018-02-15T06:45:23.024Z,99.10
2018-02-15T06:46:23.011Z,98.82
2018-02-15T06:47:23.007Z,98.53
2018-02-15T06:48:23.016Z,98.44
2018-02-15T06:49:22.978Z,99.01
2018-02-15T06:50:22.976Z,98.63
2018-02-15T06:51:22.969Z,98.44
2018-02-15T06:52:22.945Z,99.29
2018-02-15T06:53:22.933Z,98.91
2018-02-15T06:54:22.922Z,98.63
2018-02-15T06:55:22.913Z,98.82
2018-02-15T06:56:22.899Z,98.82
2018-02-15T06:57:22.886Z,98.72
2018-02-15T06:58:22.894Z,98.91
2018-02-15T06:59:22.858Z,98.91
2018-02-15T07:00:22.859Z,98.15
2018-02-15T07:01:22.841Z,98.15
2018-02-15T07:02:22.848Z,98.44
2018-02-15T07:03:22.841Z,98.91
2018-02-15T07:04:22.811Z,99.10
2018-02-15T07:05:22.799Z,98.06
2018-02-15T07:06:22.787Z,98.25
2018-02-15T07:07:22.775Z,98.06
2018-02-15T07:08:22.789Z,97.96
2018-02-15T07:09:22.756Z,98.15
2018-02-15T07:10:22.743Z,97.68
2018-02-15T07:11:22.736Z,98.06
2018-02-15T07:12:22.725Z,97.49
2018-02-15T07:13:22.715Z,97.96
2018-02-15T07:14:22.704Z,97.77
2018-02-15T07:15:22.686Z,98.06
2018-02-15T07:16:22.681Z,98.06
2018-02-15T07:17:22.665Z,97.87
2018-02-15T07:18:22.652Z,97.58
2018-02-15T07:19:22.643Z,97.68
2018-02-15T07:20:22.636Z,97.49
2018-02-15T07:21:22.619Z,97.49
2018-02-15T07:22:22.610Z,98.25
2018-02-15T07:23:22.598Z,97.39
2018-02-15T07:24:22.591Z,97.58
2018-02-15T07:25:22.583Z,97.58
2018-02-15T07:26:22.567Z,97.30
2018-02-15T07:27:22.557Z,97.39
2018-02-15T07:28:22.541Z,97.11
2018-02-15T07:29:22.530Z,97.49
2018-02-15T07:30:22.526Z,97.49
2018-02-15T07:31:22.507Z,97.49
2018-02-15T07:32:22.500Z,97.58
2018-02-15T07:33:22.489Z,97.11
2018-02-15T07:34:22.479Z,96.92
2018-02-15T07:35:22.467Z,96.73
2018-02-15T07:36:22.487Z,96.73
2018-02-15T07:37:22.452Z,96.73
2018-02-15T07:38:22.435Z,96.64
2018-02-15T07:39:22.424Z,96.54
2018-02-15T07:40:22.430Z,96.26
2018-02-15T07:41:22.406Z,96.26
2018-02-15T07:42:22.391Z,96.54
2018-02-15T07:43:22.379Z,96.07
2018-02-15T07:44:22.389Z,95.50
2018-02-15T07:45:22.357Z,95.78
2018-02-15T07:46:22.346Z,96.45
2018-02-15T07:47:22.333Z,96.07
2018-02-15T07:48:22.317Z,96.35
2018-02-15T07:49:22.309Z,95.78
2018-02-15T07:50:22.298Z,95.69
2018-02-15T07:51:22.291Z,96.16
2018-02-15T07:52:22.279Z,95.88
2018-02-15T07:53:22.261Z,95.40
2018-02-15T07:54:22.257Z,96.16
2018-02-15T07:55:22.254Z,95.78
2018-02-15T07:56:22.237Z,95.40
2018-02-15T07:57:22.227Z,96.26
2018-02-15T07:58:22.212Z,96.07
2018-02-15T07:59:22.192Z,95.97
2018-02-15T08:00:22.201Z,95.78
2018-02-15T08:01:22.176Z,96.16
2018-02-15T08:02:22.162Z,95.78
2018-02-15T08:03:22.164Z,95.78
2018-02-15T08:04:22.145Z,95.78
2018-02-15T08:05:22.143Z,95.59
2018-02-15T08:06:22.125Z,96.07
2018-02-15T08:07:22.110Z,95.97
2018-02-15T08:08:22.100Z,95.12
2018-02-15T08:09:22.091Z,95.21
2018-02-15T08:10:22.080Z,95.69
2018-02-15T08:11:22.068Z,95.50
2018-02-15T08:12:22.056Z,95.59
2018-02-15T08:13:22.047Z,95.97
2018-02-15T08:14:22.055Z,95.03
2018-02-15T08:15:22.023Z,95.40
2018-02-15T08:16:22.020Z,94.98
2018-02-15T08:17:22.002Z,94.98
2018-02-15T08:18:21.996Z,94.98
2018-02-15T08:19:21.985Z,94.89
2018-02-15T08:20:21.973Z,95.55
2018-02-15T08:21:21.957Z,94.79
2018-02-15T08:22:21.954Z,94.79
2018-02-15T08:23:21.942Z,94.98
2018-02-15T08:24:21.921Z,94.74
2018-02-15T08:25:21.917Z,94.79
2018-02-15T08:26:21.904Z,94.98
2018-02-15T08:27:21.892Z,95.17
2018-02-15T08:28:21.880Z,94.60
2018-02-15T08:29:21.870Z,94.98
2018-02-15T08:30:21.860Z,94.79
2018-02-15T08:31:21.851Z,94.98
2018-02-15T08:32:21.848Z,94.79
2018-02-15T08:33:21.823Z,95.17
2018-02-15T08:34:21.818Z,95.45
2018-02-15T08:35:21.805Z,94.89
2018-02-15T08:36:21.795Z,94.79
2018-02-15T08:37:21.784Z,94.98
2018-02-15T08:38:21.776Z,94.04
2018-02-15T08:39:21.765Z,95.17
2018-02-15T08:40:21.751Z,94.89
2018-02-15T08:41:21.745Z,94.13
2018-02-15T08:42:21.744Z,94.70
2018-02-15T08:43:21.720Z,94.70
2018-02-15T08:44:21.756Z,94.98
2018-02-15T08:45:21.700Z,94.89
2018-02-15T08:46:21.688Z,95.55
2018-02-15T08:47:21.678Z,94.79
2018-02-15T08:48:21.669Z,94.42
2018-02-15T08:49:21.658Z,94.32
2018-02-15T08:50:21.647Z,93.65
2018-02-15T08:51:21.638Z,94.23
2018-02-15T08:52:21.642Z,94.32
2018-02-15T08:53:21.616Z,94.42
2018-02-15T08:54:21.605Z,94.04
2018-02-15T08:55:21.593Z,94.42
2018-02-15T08:56:21.587Z,94.13
2018-02-15T08:57:21.577Z,94.23
2018-02-15T08:58:21.576Z,94.13
2018-02-15T08:59:21.551Z,94.51
2018-02-15T09:00:21.537Z,94.32
2018-02-15T09:01:21.546Z,94.04
2018-02-15T09:02:21.518Z,94.23
2018-02-15T09:03:21.512Z,94.04
2018-02-15T09:04:21.500Z,94.23
2018-02-15T09:05:21.490Z,94.23
2018-02-15T09:06:21.476Z,94.98
2018-02-15T09:07:21.461Z,94.32
2018-02-15T09:08:21.456Z,94.42
2018-02-15T09:09:21.497Z,94.51
2018-02-15T09:10:21.442Z,94.32
2018-02-15T09:11:21.425Z,94.04
2018-02-15T09:12:21.415Z,94.23
2018-02-15T09:13:21.405Z,94.32
2018-02-15T09:14:21.391Z,94.23
2018-02-15T09:15:21.381Z,94.51
2018-02-15T09:16:21.389Z,94.04
2018-02-15T09:17:21.385Z,94.04
2018-02-15T09:18:21.357Z,93.75
2018-02-15T09:19:21.351Z,94.04
2018-02-15T09:20:21.325Z,93.61
2018-02-15T09:21:21.320Z,93.51
2018-02-15T09:22:21.315Z,93.32
2018-02-15T09:23:21.298Z,93.51
2018-02-15T09:24:21.290Z,93.51
2018-02-15T09:25:21.280Z,93.51
2018-02-15T09:26:21.266Z,93.04
2018-02-15T09:27:21.262Z,93.04
2018-02-15T09:28:21.242Z,93.51
2018-02-15T09:29:21.235Z,93.51
2018-02-15T09:30:21.227Z,93.23
2018-02-15T09:31:21.217Z,93.42
2018-02-15T09:32:21.207Z,93.23
2018-02-15T09:33:21.198Z,92.57
2018-02-15T09:34:21.184Z,92.94
2018-02-15T09:35:21.178Z,92.85
2018-02-15T09:36:21.162Z,92.76
2018-02-15T09:37:21.152Z,92.85
2018-02-15T09:38:21.145Z,93.04
2018-02-15T09:39:21.133Z,91.90
2018-02-15T09:40:21.127Z,91.81
2018-02-15T09:41:21.115Z,93.04
2018-02-15T09:42:21.104Z,91.90
2018-02-15T09:43:21.107Z,92.85
2018-02-15T09:44:21.086Z,92.52
2018-02-15T09:45:21.075Z,92.90
2018-02-15T09:46:21.072Z,92.14
2018-02-15T09:47:21.052Z,92.23
2018-02-15T09:48:21.042Z,92.38
2018-02-15T09:49:21.042Z,92.00
2018-02-15T09:50:21.028Z,93.04
2018-02-15T09:51:21.028Z,92.76
2018-02-15T09:52:21.009Z,93.51
2018-02-15T09:53:21.000Z,93.42
2018-02-15T09:54:20.991Z,93.75
2018-02-15T09:55:20.976Z,93.37
2018-02-15T09:56:20.968Z,93.46
2018-02-15T09:57:20.958Z,93.37
2018-02-15T09:58:20.947Z,93.18
2018-02-15T09:59:20.941Z,92.99
2018-02-15T10:00:20.931Z,93.18
2018-02-15T10:01:20.919Z,93.46
2018-02-15T10:02:20.911Z,93.46
2018-02-15T10:03:20.900Z,93.18
2018-02-15T10:04:20.903Z,93.27
2018-02-15T10:05:20.885Z,93.18
2018-02-15T10:06:20.879Z,94.04
2018-02-15T10:07:20.856Z,93.18
2018-02-15T10:08:20.854Z,93.08
2018-02-15T10:09:20.849Z,93.46
2018-02-15T10:10:20.826Z,93.37
2018-02-15T10:11:20.823Z,93.18
2018-02-15T10:12:20.814Z,93.27
2018-02-15T10:13:20.818Z,94.04
2018-02-15T10:14:20.796Z,93.84
2018-02-15T10:15:20.790Z,93.75
2018-02-15T10:16:20.775Z,94.13
2018-02-15T10:17:20.767Z,94.04
2018-02-15T10:18:20.755Z,92.99
2018-02-15T10:19:20.748Z,93.84
2018-02-15T10:20:20.749Z,93.65
2018-02-15T10:21:20.729Z,93.75
2018-02-15T10:22:20.718Z,93.56
2018-02-15T10:23:20.702Z,93.56
2018-02-15T10:24:20.698Z,93.46
2018-02-15T10:25:20.686Z,93.27
2018-02-15T10:26:20.683Z,93.37
2018-02-15T10:27:20.672Z,93.37
2018-02-15T10:28:20.659Z,93.56
2018-02-15T10:29:20.681Z,93.56
2018-02-15T10:30:20.645Z,94.70
2018-02-15T10:31:20.630Z,94.32
2018-02-15T10:32:20.625Z,94.32
2018-02-15T10:33:20.622Z,94.32
2018-02-15T10:34:20.604Z,94.37
2018-02-15T10:35:20.600Z,94.18
2018-02-15T10:36:20.594Z,95.03
2018-02-15T10:37:20.570Z,94.84
2018-02-15T10:38:20.563Z,95.60
2018-02-15T10:39:20.556Z,95.22
2018-02-15T10:40:20.542Z,94.84
2018-02-15T10:41:20.538Z,94.84
2018-02-15T10:42:20.525Z,95.03
2018-02-15T10:43:20.529Z,94.84
2018-02-15T10:44:20.513Z,94.74
2018-02-15T10:45:20.499Z,95.03
2018-02-15T10:46:20.488Z,95.03
2018-02-15T10:47:20.493Z,95.03
2018-02-15T10:48:20.470Z,94.84
2018-02-15T10:49:20.459Z,95.12
2018-02-15T10:50:20.448Z,95.12
2018-02-15T10:51:20.435Z,94.93
2018-02-15T10:52:20.432Z,95.03
2018-02-15T10:53:20.418Z,95.22
2018-02-15T10:54:20.405Z,95.31
2018-02-15T10:55:20.399Z,94.84
2018-02-15T10:56:20.390Z,95.03
2018-02-15T10:57:20.388Z,94.84
2018-02-15T10:58:20.369Z,94.93
2018-02-15T10:59:20.361Z,95.03
2018-02-15T11:00:20.351Z,94.93
2018-02-15T11:01:20.341Z,94.79
2018-02-15T11:02:20.330Z,94.98
2018-02-15T11:03:20.324Z,94.32
2018-02-15T11:04:20.309Z,94.42
2018-02-15T11:05:20.302Z,95.07
2018-02-15T11:06:20.288Z,94.42
2018-02-15T11:07:20.279Z,94.60
2018-02-15T11:08:20.287Z,94.51
2018-02-15T11:09:20.256Z,94.13
2018-02-15T11:10:20.249Z,94.04
2018-02-15T11:11:20.244Z,94.51
2018-02-15T11:12:20.235Z,94.42
2018-02-15T11:13:20.229Z,94.60
2018-02-15T11:14:20.212Z,94.32
2018-02-15T11:15:20.209Z,93.94
2018-02-15T11:16:20.187Z,94.42
2018-02-15T11:17:20.183Z,94.51
2018-02-15T11:18:20.172Z,94.70
2018-02-15T11:19:20.164Z,94.42
2018-02-15T11:20:20.152Z,94.32
2018-02-15T11:21:20.143Z,93.84
2018-02-15T11:22:20.133Z,93.94
2018-02-15T11:23:20.125Z,94.04
2018-02-15T11:24:20.117Z,93.75
2018-02-15T11:25:20.108Z,94.51
2018-02-15T11:26:20.096Z,93.94
2018-02-15T11:27:20.093Z,94.23
2018-02-15T11:28:20.088Z,94.42
2018-02-15T11:29:20.068Z,94.51
2018-02-15T11:30:20.066Z,94.51
2018-02-15T11:31:20.041Z,94.51
2018-02-15T11:32:20.038Z,94.42
2018-02-15T11:33:20.028Z,94.13
2018-02-15T11:34:20.022Z,94.32
2018-02-15T11:35:20.009Z,93.94
2018-02-15T11:36:20.001Z,94.51
2018-02-15T11:37:19.991Z,94.23
2018-02-15T11:38:19.977Z,95.07
2018-02-15T11:39:19.999Z,94.89
2018-02-15T11:40:19.983Z,94.98
2018-02-15T11:41:19.961Z,94.98
2018-02-15T11:42:19.957Z,95.17
2018-02-15T11:43:19.933Z,94.89
2018-02-15T11:44:19.934Z,94.89
2018-02-15T11:45:19.911Z,95.07
2018-02-15T11:46:19.909Z,94.98
2018-02-15T11:47:19.897Z,94.42
2018-02-15T11:48:19.886Z,94.60
2018-02-15T11:49:19.880Z,95.17
2018-02-15T11:50:19.864Z,94.13
2018-02-15T11:51:19.865Z,94.32
2018-02-15T11:52:19.848Z,94.13
2018-02-15T11:53:19.835Z,94.42
2018-02-15T11:54:19.829Z,94.32
2018-02-15T11:55:19.819Z,94.42
2018-02-15T11:56:19.810Z,94.42
2018-02-15T11:57:19.796Z,94.60
2018-02-15T11:58:19.794Z,94.42
2018-02-15T11:59:19.786Z,94.51
2018-02-15T12:00:19.768Z,94.60
2018-02-15T12:01:19.772Z,94.42
2018-02-15T12:02:19.761Z,94.60
2018-02-15T12:03:19.747Z,94.51
2018-02-15T12:04:19.725Z,94.32
2018-02-15T12:05:19.724Z,94.23
2018-02-15T12:06:19.710Z,94.84
2018-02-15T12:07:19.695Z,94.60
2018-02-15T12:08:19.694Z,94.51
2018-02-15T12:09:19.691Z,94.37
2018-02-15T12:10:19.668Z,94.13
2018-02-15T12:11:19.660Z,94.65
2018-02-15T12:12:19.693Z,94.18
2018-02-15T12:13:19.690Z,93.99
2018-02-15T12:14:19.638Z,93.99
2018-02-15T12:15:19.620Z,94.18
2018-02-15T12:16:19.620Z,94.18
2018-02-15T12:17:19.602Z,94.37
2018-02-15T12:18:19.614Z,93.32
2018-02-15T12:19:19.609Z,93.23
2018-02-15T12:20:19.584Z,93.32
2018-02-15T12:21:19.573Z,93.13
2018-02-15T12:22:19.564Z,92.66
2018-02-15T12:23:19.568Z,92.85
2018-02-15T12:24:19.557Z,93.23
2018-02-15T12:25:19.556Z,93.23
2018-02-15T12:26:19.529Z,93.04
2018-02-15T12:27:19.520Z,94.18
2018-02-15T12:28:19.514Z,93.41
2018-02-15T12:29:19.498Z,94.08
2018-02-15T12:30:19.492Z,94.27
2018-02-15T12:31:19.479Z,94.65
2018-02-15T12:32:19.482Z,94.74
2018-02-15T12:33:19.464Z,94.56
2018-02-15T12:34:19.455Z,93.89
2018-02-15T12:35:19.454Z,94.46
2018-02-15T12:36:19.447Z,93.89
2018-02-15T12:37:19.430Z,93.80
2018-02-15T12:38:19.453Z,94.46
2018-02-15T12:39:19.431Z,93.70
2018-02-15T12:40:19.405Z,93.61
2018-02-15T12:41:19.412Z,93.23
2018-02-15T12:42:19.409Z,93.94
2018-02-15T12:43:19.379Z,94.70
2018-02-15T12:44:19.384Z,94.08
2018-02-15T12:45:19.355Z,93.56
2018-02-15T12:46:19.371Z,93.75
2018-02-15T12:47:19.330Z,93.84
2018-02-15T12:48:19.352Z,93.56
2018-02-15T12:49:19.335Z,93.65
2018-02-15T12:50:19.318Z,93.94
2018-02-15T12:51:19.310Z,93.84
2018-02-15T12:52:19.296Z,93.94
2018-02-15T12:53:19.288Z,94.18
2018-02-15T12:54:19.281Z,93.37
2018-02-15T12:55:19.271Z,93.37
2018-02-15T12:56:19.279Z,93.56
2018-02-15T12:57:19.248Z,94.60
2018-02-15T12:58:19.247Z,93.94
2018-02-15T12:59:19.234Z,93.94
2018-02-15T13:00:19.224Z,93.94
2018-02-15T13:01:19.220Z,94.60
2018-02-15T13:02:19.220Z,93.94
2018-02-15T13:03:19.199Z,94.03
2018-02-15T13:04:19.198Z,94.03
2018-02-15T13:05:19.184Z,93.56
2018-02-15T13:06:19.186Z,93.75
2018-02-15T13:07:19.173Z,93.94
2018-02-15T13:08:19.161Z,94.03
2018-02-15T13:09:19.153Z,94.32
2018-02-15T13:10:19.170Z,94.32
2018-02-15T13:11:19.135Z,94.23
2018-02-15T13:12:19.126Z,94.18
2018-02-15T13:13:19.110Z,94.23
2018-02-15T13:14:19.157Z,94.51
2018-02-15T13:15:19.099Z,93.80
2018-02-15T13:16:19.097Z,94.23
2018-02-15T13:17:19.083Z,94.60
2018-02-15T13:18:19.074Z,94.13
2018-02-15T13:19:19.066Z,93.84
2018-02-15T13:20:19.057Z,93.94
2018-02-15T13:21:19.042Z,93.94
2018-02-15T13:22:19.064Z,94.03
2018-02-15T13:23:19.034Z,93.65
2018-02-15T13:24:19.025Z,93.46
2018-02-15T13:25:19.013Z,93.37
2018-02-15T13:26:19.000Z,93.37
2018-02-15T13:27:18.996Z,93.94
2018-02-15T13:28:18.987Z,94.03
2018-02-15T13:29:18.981Z,93.84
2018-02-15T13:30:18.969Z,93.46
2018-02-15T13:31:18.969Z,93.18
2018-02-15T13:32:18.958Z,93.65
2018-02-15T13:33:18.959Z,94.23
2018-02-15T13:34:18.933Z,93.37
2018-02-15T13:35:18.923Z,93.84
2018-02-15T13:36:18.932Z,93.65
2018-02-15T13:37:18.933Z,93.56
2018-02-15T13:38:18.894Z,93.56
2018-02-15T13:39:18.891Z,94.23
2018-02-15T13:40:18.892Z,93.94
2018-02-15T13:41:18.877Z,93.94
2018-02-15T13:42:18.868Z,93.75
2018-02-15T13:43:18.854Z,93.75
2018-02-15T13:44:18.878Z,93.75
2018-02-15T13:45:18.841Z,93.94
2018-02-15T13:46:18.837Z,94.03
2018-02-15T13:47:18.825Z,93.94
2018-02-15T13:48:18.839Z,94.13
2018-02-15T13:49:18.810Z,93.84
2018-02-15T13:50:18.806Z,94.13
2018-02-15T13:51:18.783Z,93.84
2018-02-15T13:52:18.780Z,94.03
2018-02-15T13:53:18.774Z,94.03
2018-02-15T13:53:30.776Z,94.42
2018-02-15T13:55:18.755Z,94.60
2018-02-15T13:56:18.792Z,94.42
2018-02-15T13:57:18.742Z,95.46
2018-02-15T13:58:18.751Z,94.89
2018-02-15T13:59:18.721Z,94.89
2018-02-15T14:00:18.714Z,94.51
2018-02-15T14:01:18.706Z,94.60
2018-02-15T14:02:18.707Z,94.32
2018-02-15T14:03:18.686Z,94.89
2018-02-15T14:04:18.678Z,95.07
2018-02-15T14:05:18.669Z,94.79
2018-02-15T14:06:18.654Z,95.36
2018-02-15T14:07:18.655Z,95.46
2018-02-15T14:08:18.666Z,95.93
2018-02-15T14:09:18.641Z,95.93
2018-02-15T14:10:18.621Z,95.84
2018-02-15T14:11:18.624Z,96.22
2018-02-15T14:12:18.638Z,96.31
2018-02-15T14:13:18.598Z,96.41
2018-02-15T14:14:18.590Z,96.59
2018-02-15T14:15:18.587Z,97.17
2018-02-15T14:16:18.579Z,96.59
2018-02-15T14:17:18.567Z,96.88
2018-02-15T14:18:18.558Z,97.64
2018-02-15T14:19:18.552Z,97.64
2018-02-15T14:20:18.548Z,97.26
2018-02-15T14:21:18.524Z,97.55
2018-02-15T14:22:18.525Z,97.83
2018-02-15T14:23:18.535Z,98.11
2018-02-15T14:24:18.514Z,98.68
2018-02-15T14:25:18.521Z,98.30
2018-02-15T14:26:18.490Z,98.40
2018-02-15T14:27:18.485Z,99.06
2018-02-15T14:28:18.467Z,99.35
2018-02-15T14:29:18.462Z,99.06
2018-02-15T14:30:18.452Z,99.26
2018-02-15T14:31:18.444Z,99.44
2018-02-15T14:32:18.441Z,98.78
2018-02-15T14:33:18.424Z,98.40
2018-02-15T14:34:18.415Z,98.68
2018-02-15T14:35:18.404Z,99.16
2018-02-15T14:36:18.400Z,98.30
2018-02-15T14:37:18.400Z,98.21
2018-02-15T14:38:18.397Z,98.40
2018-02-15T14:39:18.375Z,98.97
2018-02-15T14:40:18.368Z,98.87
2018-02-15T14:41:18.354Z,99.26
2018-02-15T14:42:18.352Z,98.97
2018-02-15T14:43:18.347Z,99.35
2018-02-15T14:44:18.344Z,99.06
2018-02-15T14:45:18.346Z,99.06
2018-02-15T14:46:18.306Z,99.16
2018-02-15T14:47:18.320Z,99.44
2018-02-15T14:48:18.300Z,99.35
2018-02-15T14:49:18.291Z,98.87
2018-02-15T14:50:18.286Z,98.97
2018-02-15T14:51:18.300Z,98.87
2018-02-15T14:52:18.263Z,99.26
2018-02-15T14:53:18.252Z,99.06
2018-02-15T14:54:18.242Z,99.06
2018-02-15T14:55:18.234Z,99.44
2018-02-15T14:56:18.248Z,99.63
2018-02-15T14:57:18.224Z,99.63
2018-02-15T14:58:18.220Z,99.63
2018-02-15T14:59:18.198Z,99.35
2018-02-15T15:00:18.185Z,99.44
2018-02-15T15:01:18.185Z,99.44
2018-02-15T15:02:18.178Z,99.77
2018-02-15T15:03:18.176Z,99.63
2018-02-15T15:04:18.178Z,99.58
2018-02-15T15:05:18.181Z,99.40
2018-02-15T15:06:18.152Z,99.40
2018-02-15T15:07:18.136Z,99.30
2018-02-15T15:08:18.128Z,98.83
2018-02-15T15:09:18.116Z,99.21
2018-02-15T15:10:18.121Z,99.30
2018-02-15T15:11:18.106Z,99.40
2018-02-15T15:12:18.093Z,99.11
2018-02-15T15:13:18.094Z,99.11
2018-02-15T15:14:18.070Z,98.64
2018-02-15T15:15:18.061Z,98.35
2018-02-15T15:16:18.053Z,98.54
2018-02-15T15:17:18.046Z,98.26
2018-02-15T15:18:18.062Z,98.54
2018-02-15T15:19:18.032Z,98.35
2018-02-15T15:20:18.020Z,98.16
2018-02-15T15:21:18.015Z,98.73
2018-02-15T15:22:18.016Z,98.54
2018-02-15T15:23:18.016Z,98.64
2018-02-15T15:24:17.991Z,98.26
2018-02-15T15:25:17.986Z,98.83
2018-02-15T15:26:17.974Z,99.30
2018-02-15T15:27:17.964Z,98.83
2018-02-15T15:28:17.981Z,99.49
2018-02-15T15:29:17.945Z,99.02
2018-02-15T15:30:17.957Z,98.73
2018-02-15T15:31:17.932Z,98.35
2018-02-15T15:32:17.936Z,98.45
2018-02-15T15:33:17.913Z,99.11
2018-02-15T15:34:17.903Z,99.11
2018-02-15T15:35:17.897Z,99.02
2018-02-15T15:36:17.892Z,99.21
2018-02-15T15:37:17.877Z,99.30
2018-02-15T15:38:17.893Z,98.92
2018-02-15T15:39:17.862Z,98.92
2018-02-15T15:40:17.853Z,99.02
2018-02-15T15:41:17.867Z,99.11
2018-02-15T15:42:17.837Z,99.11
2018-02-15T15:43:17.836Z,99.21
2018-02-15T15:44:17.816Z,99.40
2018-02-15T15:45:17.822Z,99.21
2018-02-15T15:46:17.816Z,99.87
2018-02-15T15:47:17.798Z,99.49
2018-02-15T15:48:17.787Z,99.68
2018-02-15T15:49:17.780Z,99.02
2018-02-15T15:50:17.768Z,99.99
2018-02-15T15:51:17.778Z,99.68
2018-02-15T15:52:17.769Z,99.99
2018-02-15T15:53:17.746Z,99.87
2018-02-15T15:54:17.739Z,99.87
2018-02-15T15:55:17.727Z,99.68
2018-02-15T15:56:17.721Z,99.97
2018-02-15T15:57:17.707Z,99.87
2018-02-15T15:58:17.706Z,99.99
2018-02-15T15:59:17.688Z,99.87
2018-02-15T16:00:17.708Z,99.87
2018-02-15T16:01:17.670Z,99.99
2018-02-15T16:02:17.664Z,99.99
2018-02-15T16:03:17.664Z,99.99
2018-02-15T16:04:17.658Z,99.87
2018-02-15T16:05:17.647Z,99.97
2018-02-15T16:06:17.634Z,99.87
2018-02-15T16:07:17.631Z,99.99
2018-02-15T16:08:17.640Z,99.99
2018-02-15T16:09:17.606Z,99.99
2018-02-15T16:10:17.602Z,99.68
2018-02-15T16:11:17.591Z,99.87
2018-02-15T16:12:17.583Z,99.99
2018-02-15T16:13:17.577Z,99.97
2018-02-15T16:14:17.569Z,99.97
2018-02-15T16:15:17.556Z,99.99
2018-02-15T16:16:17.546Z,99.99
2018-02-15T16:17:17.553Z,99.97
2018-02-15T16:18:17.537Z,99.97
2018-02-15T16:19:17.538Z,99.40
2018-02-15T16:20:17.521Z,99.68
2018-02-15T16:21:17.511Z,99.40
2018-02-15T16:22:17.502Z,99.30
2018-02-15T16:23:17.492Z,99.99
2018-02-15T16:24:17.511Z,99.40
2018-02-15T16:25:17.473Z,99.97
2018-02-15T16:26:17.463Z,99.99
2018-02-15T16:27:17.479Z,99.99
2018-02-15T16:28:17.458Z,99.99
2018-02-15T16:29:17.461Z,99.99
2018-02-15T16:30:17.425Z,99.99
2018-02-15T16:31:17.423Z,98.92
2018-02-15T16:32:17.416Z,99.58
2018-02-15T16:33:17.405Z,99.40
2018-02-15T16:34:17.398Z,99.30
2018-02-15T16:35:17.403Z,99.40
2018-02-15T16:36:17.386Z,99.30
2018-02-15T16:37:17.372Z,99.30
2018-02-15T16:38:17.357Z,99.49
2018-02-15T16:39:17.354Z,99.30
2018-02-15T16:40:17.344Z,98.92
2018-02-15T16:41:17.332Z,99.02
2018-02-15T16:42:17.346Z,98.35
2018-02-15T16:43:17.320Z,98.16
2018-02-15T16:44:17.322Z,98.64
2018-02-15T16:45:17.314Z,98.26
2018-02-15T16:46:17.324Z,98.64
2018-02-15T16:47:17.305Z,98.83
2018-02-15T16:48:17.286Z,98.92
2018-02-15T16:49:17.281Z,98.73
2018-02-15T16:50:17.267Z,98.54
2018-02-15T16:51:17.258Z,98.64
2018-02-15T16:52:17.241Z,98.26
2018-02-15T16:53:17.247Z,98.16
2018-02-15T16:54:17.232Z,98.26